createdAt,value
2024-04-22T00:00:16.720Z,4.55
2024-04-22T00:01:20.144Z,4.47
2024-04-22T00:02:23.272Z,4.39
2024-04-22T00:03:26.199Z,4.43
2024-04-22T00:04:29.175Z,4.42
2024-04-22T00:05:32.398Z,4.51
2024-04-22T00:06:35.251Z,4.49
2024-04-22T00:07:38.258Z,4.49
2024-04-22T00:08:41.532Z,4.49
2024-04-22T00:09:47.523Z,4.44
2024-04-22T00:11:03.563Z,4.44
2024-04-22T00:12:08.308Z,4.48
2024-04-22T00:13:11.291Z,4.51
2024-04-22T00:14:14.226Z,4.59
2024-04-22T00:15:17.145Z,4.60
2024-04-22T00:16:20.204Z,4.56
2024-04-22T00:17:23.272Z,4.48
2024-04-22T00:18:26.252Z,4.47
2024-04-22T00:19:29.172Z,4.52
2024-04-22T00:20:32.122Z,4.53
2024-04-22T00:21:35.256Z,4.50
2024-04-22T00:22:38.233Z,4.45
2024-04-22T00:23:41.661Z,4.38
2024-04-22T00:24:44.722Z,4.34
2024-04-22T00:25:47.558Z,4.31
2024-04-22T00:26:50.587Z,4.27
2024-04-22T00:27:53.487Z,4.20
2024-04-22T00:28:56.387Z,4.09
2024-04-22T00:29:59.457Z,4.13
2024-04-22T00:31:02.354Z,4.21
2024-04-22T00:32:05.541Z,4.22
2024-04-22T00:33:10.285Z,4.21
2024-04-22T00:34:13.343Z,4.23
2024-04-22T00:35:17.488Z,4.23
2024-04-22T00:36:21.506Z,4.27
2024-04-22T00:37:24.510Z,4.31
2024-04-22T00:38:27.981Z,4.31
2024-04-22T00:39:30.916Z,4.32
2024-04-22T00:40:33.899Z,4.39
2024-04-22T00:41:36.786Z,4.44
2024-04-22T00:42:44.676Z,4.44
2024-04-22T00:43:47.626Z,4.44
2024-04-22T00:44:51.159Z,4.28
2024-04-22T00:46:27.678Z,4.32
2024-04-22T00:47:30.891Z,4.33
2024-04-22T00:48:34.670Z,4.31
2024-04-22T00:49:38.149Z,4.29
2024-04-22T00:50:42.102Z,4.22
2024-04-22T00:51:45.522Z,4.34
2024-04-22T00:52:48.636Z,4.38
2024-04-22T00:53:53.400Z,4.28
2024-04-22T00:54:56.286Z,4.31
2024-04-22T00:56:00.431Z,4.38
2024-04-22T00:57:04.596Z,4.27
2024-04-22T00:58:09.196Z,4.19
2024-04-22T00:59:14.881Z,4.11
2024-04-22T01:00:18.168Z,4.26
2024-04-22T01:01:25.056Z,4.40
2024-04-22T01:02:28.147Z,4.42
2024-04-22T01:03:31.361Z,4.42
2024-04-22T01:04:36.858Z,4.40
2024-04-22T01:05:39.803Z,4.36
2024-04-22T01:06:42.741Z,4.33
2024-04-22T01:07:48.990Z,4.31
2024-04-22T01:08:51.868Z,4.40
2024-04-22T01:09:54.842Z,4.32
2024-04-22T01:10:59.681Z,4.37
2024-04-22T01:12:02.593Z,4.24
2024-04-22T01:13:05.651Z,4.05
2024-04-22T01:14:09.203Z,4.06
2024-04-22T01:15:12.484Z,4.14
2024-04-22T01:16:15.365Z,4.22
2024-04-22T01:17:18.265Z,4.31
2024-04-22T01:18:21.342Z,4.41
2024-04-22T01:19:24.541Z,4.50
2024-04-22T01:20:27.495Z,4.54
2024-04-22T01:21:30.461Z,4.53
2024-04-22T01:22:33.423Z,4.53
2024-04-22T01:23:36.490Z,4.52
2024-04-22T01:24:39.758Z,4.39
2024-04-22T01:25:44.330Z,4.43
2024-04-22T01:26:52.593Z,4.37
2024-04-22T01:27:55.492Z,4.36
2024-04-22T01:28:58.380Z,4.26
2024-04-22T01:30:02.705Z,4.33
2024-04-22T01:31:05.616Z,4.28
2024-04-22T01:32:08.554Z,4.32
2024-04-22T01:33:11.637Z,4.32
2024-04-22T01:34:14.564Z,4.43
2024-04-22T01:35:17.542Z,4.33
2024-04-22T01:36:20.591Z,4.40
2024-04-22T01:37:23.610Z,4.33
2024-04-22T01:38:26.493Z,4.26
2024-04-22T01:39:29.456Z,4.26
2024-04-22T01:40:32.397Z,4.28
2024-04-22T01:41:35.271Z,4.24
2024-04-22T01:42:38.182Z,4.28
2024-04-22T01:43:41.330Z,4.30
2024-04-22T01:44:44.416Z,4.39
2024-04-22T01:45:47.410Z,4.40
2024-04-22T01:46:50.831Z,4.45
2024-04-22T01:47:54.006Z,4.49
2024-04-22T01:48:56.925Z,4.53
2024-04-22T01:49:59.970Z,4.48
2024-04-22T01:51:02.869Z,4.57
2024-04-22T01:52:05.913Z,4.55
2024-04-22T01:53:08.844Z,4.55
2024-04-22T01:54:11.902Z,4.48
2024-04-22T01:55:14.949Z,4.45
2024-04-22T01:56:17.988Z,4.42
2024-04-22T01:57:21.077Z,4.32
2024-04-22T01:58:24.021Z,4.18
2024-04-22T01:59:27.310Z,4.19
2024-04-22T02:02:12.073Z,4.12
2024-04-22T02:03:15.597Z,4.13
2024-04-22T02:04:18.528Z,4.14
2024-04-22T02:05:21.424Z,4.15
2024-04-22T02:06:24.286Z,4.19
2024-04-22T02:07:28.654Z,4.17
2024-04-22T02:08:31.865Z,4.20
2024-04-22T02:09:34.850Z,4.13
2024-04-22T02:10:37.992Z,4.05
2024-04-22T02:11:40.992Z,4.01
2024-04-22T02:12:43.995Z,3.96
2024-04-22T02:13:46.903Z,3.96
2024-04-22T02:14:49.959Z,4.02
2024-04-22T02:15:53.145Z,4.06
2024-04-22T02:16:56.319Z,4.03
2024-04-22T02:18:01.526Z,3.94
2024-04-22T02:19:04.603Z,3.91
2024-04-22T02:20:07.583Z,3.83
2024-04-22T02:21:10.651Z,3.74
2024-04-22T02:22:13.657Z,3.69
2024-04-22T02:23:17.181Z,3.60
2024-04-22T02:24:20.165Z,3.64
2024-04-22T02:25:23.303Z,3.64
2024-04-22T02:26:26.366Z,3.65
2024-04-22T02:27:29.297Z,3.75
2024-04-22T02:28:32.273Z,3.78
2024-04-22T02:29:35.177Z,3.87
2024-04-22T02:30:38.271Z,3.88
2024-04-22T02:31:43.456Z,3.83
2024-04-22T02:32:46.461Z,3.82
2024-04-22T02:33:49.912Z,3.83
2024-04-22T02:34:53.180Z,3.88
2024-04-22T02:35:59.307Z,3.91
2024-04-22T02:37:02.169Z,3.92
2024-04-22T02:38:05.214Z,3.97
2024-04-22T02:39:08.358Z,4.06
2024-04-22T02:40:11.589Z,4.07
2024-04-22T02:41:14.485Z,4.02
2024-04-22T02:42:17.396Z,3.96
2024-04-22T02:43:20.375Z,3.97
2024-04-22T02:44:23.321Z,3.95
2024-04-22T02:45:27.229Z,3.89
2024-04-22T02:46:30.346Z,3.95
2024-04-22T02:47:33.565Z,3.96
2024-04-22T02:48:36.581Z,3.87
2024-04-22T02:49:39.779Z,3.85
2024-04-22T02:50:42.856Z,3.90
2024-04-22T02:51:45.752Z,3.83
2024-04-22T02:52:48.765Z,3.88
2024-04-22T02:53:51.722Z,3.86
2024-04-22T02:54:54.673Z,3.76
2024-04-22T02:55:57.602Z,3.78
2024-04-22T02:57:00.485Z,3.78
2024-04-22T02:58:03.515Z,3.80
2024-04-22T02:59:06.668Z,3.69
2024-04-22T03:00:10.331Z,3.69
2024-04-22T03:01:13.393Z,3.64
2024-04-22T03:02:16.645Z,3.65
2024-04-22T03:03:19.747Z,3.65
2024-04-22T03:04:24.890Z,3.67
2024-04-22T03:05:28.075Z,3.62
2024-04-22T03:06:31.038Z,3.64
2024-04-22T03:07:33.986Z,3.67
2024-04-22T03:08:38.818Z,3.60
2024-04-22T03:09:44.164Z,3.58
2024-04-22T03:10:47.080Z,3.52
2024-04-22T03:11:50.037Z,3.37
2024-04-22T03:12:52.956Z,3.37
2024-04-22T03:13:55.868Z,3.25
2024-04-22T03:14:59.460Z,3.24
2024-04-22T03:16:02.408Z,3.30
2024-04-22T03:17:06.176Z,3.31
2024-04-22T03:18:09.300Z,3.25
2024-04-22T03:19:12.488Z,3.23
2024-04-22T03:20:15.472Z,3.18
2024-04-22T03:21:18.411Z,3.16
2024-04-22T03:22:21.585Z,3.03
2024-04-22T03:23:24.430Z,3.00
2024-04-22T03:24:27.291Z,2.98
2024-04-22T03:25:30.275Z,2.96
2024-04-22T03:26:33.249Z,2.96
2024-04-22T03:27:36.131Z,3.04
2024-04-22T03:28:39.518Z,3.06
2024-04-22T03:29:42.466Z,3.05
2024-04-22T03:30:45.436Z,2.99
2024-04-22T03:31:48.457Z,2.77
2024-04-22T03:32:51.472Z,2.64
2024-04-22T03:33:54.416Z,2.66
2024-04-22T03:34:57.336Z,2.62
2024-04-22T03:36:04.257Z,2.45
2024-04-22T03:37:07.242Z,2.46
2024-04-22T03:38:10.321Z,2.38
2024-04-22T03:39:13.271Z,2.44
2024-04-22T03:40:16.294Z,2.56
2024-04-22T03:41:19.209Z,2.56
2024-04-22T03:42:22.178Z,2.41
2024-04-22T03:43:25.128Z,2.36
2024-04-22T03:44:28.627Z,2.29
2024-04-22T03:45:31.541Z,2.13
2024-04-22T03:46:53.381Z,2.01
2024-04-22T03:48:15.214Z,1.99
2024-04-22T03:49:37.143Z,1.94
2024-04-22T03:50:42.217Z,2.02
2024-04-22T03:51:46.226Z,2.06
2024-04-22T03:52:49.437Z,2.17
2024-04-22T03:53:52.389Z,2.24
2024-04-22T03:54:55.412Z,2.36
2024-04-22T03:55:58.395Z,2.32
2024-04-22T03:57:01.327Z,2.34
2024-04-22T03:58:04.332Z,2.19
2024-04-22T03:59:07.180Z,2.08
2024-04-22T04:00:10.518Z,2.07
2024-04-22T04:01:17.455Z,2.00
2024-04-22T04:02:20.472Z,2.13
2024-04-22T04:03:23.375Z,2.18
2024-04-22T04:04:26.559Z,2.16
2024-04-22T04:05:29.648Z,2.05
2024-04-22T04:06:32.692Z,2.04
2024-04-22T04:07:35.654Z,2.04
2024-04-22T04:08:38.670Z,2.04
2024-04-22T04:09:43.613Z,2.09
2024-04-22T04:10:47.391Z,2.11
2024-04-22T04:11:52.390Z,2.19
2024-04-22T04:12:55.330Z,2.23
2024-04-22T04:13:58.227Z,2.29
2024-04-22T04:15:01.124Z,2.36
2024-04-22T04:16:04.270Z,2.37
2024-04-22T04:17:07.267Z,2.40
2024-04-22T04:18:10.361Z,2.41
2024-04-22T04:19:15.511Z,2.44
2024-04-22T04:20:18.428Z,2.40
2024-04-22T04:21:22.070Z,2.21
2024-04-22T04:22:25.112Z,2.19
2024-04-22T04:23:28.056Z,2.17
2024-04-22T04:24:31.046Z,2.21
2024-04-22T04:25:33.919Z,2.24
2024-04-22T04:26:36.916Z,2.32
2024-04-22T04:27:39.848Z,2.37
2024-04-22T04:28:44.228Z,2.40
2024-04-22T04:29:48.210Z,2.41
2024-04-22T04:31:00.575Z,2.42
2024-04-22T04:32:03.684Z,2.43
2024-04-22T04:33:06.876Z,2.43
2024-04-22T04:34:09.861Z,2.46
2024-04-22T04:35:12.790Z,2.49
2024-04-22T04:36:15.728Z,2.38
2024-04-22T04:37:19.072Z,2.30
2024-04-22T04:38:21.998Z,2.21
2024-04-22T04:39:24.926Z,2.14
2024-04-22T04:40:27.825Z,1.97
2024-04-22T04:41:30.857Z,1.94
2024-04-22T04:42:33.948Z,1.95
2024-04-22T04:43:36.960Z,2.05
2024-04-22T04:44:39.946Z,2.44
2024-04-22T04:45:42.854Z,3.11
2024-04-22T04:46:45.783Z,4.59
2024-04-22T04:47:50.710Z,6.89
2024-04-22T04:48:54.102Z,8.26
2024-04-22T04:49:57.118Z,8.26
2024-04-22T04:50:59.987Z,8.00
2024-04-22T04:52:03.074Z,7.93
2024-04-22T04:53:06.625Z,7.94
2024-04-22T04:54:09.554Z,9.43
2024-04-22T04:55:12.550Z,11.59
2024-04-22T04:56:15.515Z,13.07
2024-04-22T04:57:18.513Z,14.35
2024-04-22T04:58:24.938Z,14.97
2024-04-22T04:59:28.738Z,15.27
2024-04-22T05:00:31.756Z,16.14
2024-04-22T05:01:34.839Z,17.15
2024-04-22T05:02:38.043Z,17.03
2024-04-22T05:03:41.197Z,15.88
2024-04-22T05:04:44.156Z,16.03
2024-04-22T05:05:47.116Z,17.44
2024-04-22T05:06:50.171Z,18.54
2024-04-22T05:07:54.034Z,18.43
2024-04-22T05:08:57.071Z,18.81
2024-04-22T05:10:00.053Z,18.63
2024-04-22T05:11:05.971Z,19.74
2024-04-22T05:12:08.916Z,20.06
2024-04-22T05:13:11.867Z,19.74
2024-04-22T05:14:14.725Z,20.41
2024-04-22T05:15:18.939Z,21.48
2024-04-22T05:16:21.874Z,21.23
2024-04-22T05:17:24.895Z,21.05
2024-04-22T05:18:33.891Z,20.78
2024-04-22T05:19:37.137Z,21.34
2024-04-22T05:20:42.623Z,21.49
2024-04-22T05:21:46.849Z,21.33
2024-04-22T05:22:49.794Z,21.36
2024-04-22T05:23:52.726Z,21.44
2024-04-22T05:24:55.635Z,21.59
2024-04-22T05:25:58.595Z,22.07
2024-04-22T05:27:01.483Z,21.67
2024-04-22T05:28:04.435Z,21.92
2024-04-22T05:29:07.372Z,22.04
2024-04-22T05:30:11.089Z,22.18
2024-04-22T05:31:14.950Z,22.10
2024-04-22T05:32:19.001Z,22.57
2024-04-22T05:33:40.521Z,22.54
2024-04-22T05:35:02.119Z,22.35
2024-04-22T05:36:13.316Z,21.86
2024-04-22T05:37:16.556Z,22.10
2024-04-22T05:38:19.491Z,22.47
2024-04-22T05:39:22.444Z,21.92
2024-04-22T05:40:25.461Z,22.44
2024-04-22T05:41:28.484Z,22.57
2024-04-22T05:42:31.404Z,21.86
2024-04-22T05:43:34.321Z,22.48
2024-04-22T05:44:37.235Z,21.89
2024-04-22T05:45:40.116Z,21.27
2024-04-22T05:46:43.915Z,21.54
2024-04-22T05:47:47.010Z,21.57
2024-04-22T05:48:50.043Z,21.66
2024-04-22T05:49:52.924Z,22.62
2024-04-22T05:50:55.804Z,22.27
2024-04-22T05:52:00.746Z,22.45
2024-04-22T05:53:04.438Z,23.01
2024-04-22T05:54:10.828Z,22.56
2024-04-22T05:55:13.808Z,22.65
2024-04-22T05:56:16.829Z,22.78
2024-04-22T05:57:20.342Z,22.42
2024-04-22T05:58:23.297Z,22.05
2024-04-22T05:59:26.258Z,22.14
2024-04-22T06:00:29.123Z,22.36
2024-04-22T06:01:32.050Z,22.65
2024-04-22T06:02:34.898Z,22.25
2024-04-22T06:03:37.783Z,21.70
2024-04-22T06:04:40.918Z,19.00
2024-04-22T06:05:43.875Z,18.39
2024-04-22T06:06:46.784Z,19.35
2024-04-22T06:07:49.852Z,17.34
2024-04-22T06:08:52.869Z,16.78
2024-04-22T06:09:58.738Z,16.92
2024-04-22T06:11:01.768Z,16.06
2024-04-22T06:12:15.178Z,16.73
2024-04-22T06:13:22.695Z,14.62
2024-04-22T06:14:25.716Z,14.82
2024-04-22T06:15:28.656Z,15.01
2024-04-22T06:16:33.057Z,15.47
2024-04-22T06:17:37.331Z,14.66
2024-04-22T06:18:40.662Z,15.70
2024-04-22T06:19:43.759Z,15.78
2024-04-22T06:20:47.085Z,15.35
2024-04-22T06:21:50.080Z,17.02
2024-04-22T06:22:53.272Z,16.38
2024-04-22T06:23:56.272Z,16.70
2024-04-22T06:24:59.297Z,16.97
2024-04-22T06:26:12.009Z,15.43
2024-04-22T06:27:15.223Z,14.23
2024-04-22T06:28:18.902Z,14.48
2024-04-22T06:29:22.425Z,16.13
2024-04-22T06:30:25.728Z,16.25
2024-04-22T06:31:28.895Z,15.40
2024-04-22T06:32:36.572Z,16.03
2024-04-22T06:33:43.891Z,16.93
2024-04-22T06:34:46.955Z,15.89
2024-04-22T06:35:50.397Z,15.38
2024-04-22T06:36:53.465Z,15.69
2024-04-22T06:37:56.636Z,15.96
2024-04-22T06:38:59.852Z,17.66
2024-04-22T06:40:02.818Z,17.96
2024-04-22T06:41:06.160Z,16.64
2024-04-22T06:42:09.168Z,15.21
2024-04-22T06:43:12.659Z,15.54
2024-04-22T06:44:15.598Z,14.36
2024-04-22T06:45:18.927Z,15.37
2024-04-22T06:46:22.361Z,13.48
2024-04-22T06:47:25.325Z,10.81
2024-04-22T06:48:28.252Z,9.33
2024-04-22T06:49:31.165Z,7.85
2024-04-22T06:50:34.090Z,6.73
2024-04-22T06:51:37.033Z,6.66
2024-04-22T06:52:39.990Z,6.24
2024-04-22T06:53:42.990Z,5.46
2024-04-22T06:54:45.840Z,5.17
2024-04-22T06:55:48.822Z,5.15
2024-04-22T06:56:51.749Z,4.95
2024-04-22T06:57:54.703Z,4.96
2024-04-22T06:58:57.576Z,4.86
2024-04-22T07:00:00.622Z,4.95
2024-04-22T07:01:03.688Z,5.05
2024-04-22T07:02:10.449Z,5.56
2024-04-22T07:03:15.804Z,5.23
2024-04-22T07:04:18.999Z,5.23
2024-04-22T07:05:21.952Z,5.05
2024-04-22T07:06:27.809Z,5.00
2024-04-22T07:07:32.930Z,4.76
2024-04-22T07:08:35.973Z,5.49
2024-04-22T07:09:38.871Z,5.48
2024-04-22T07:10:41.876Z,5.45
2024-04-22T07:11:45.150Z,5.33
2024-04-22T07:12:48.013Z,5.43
2024-04-22T07:13:51.866Z,5.51
2024-04-22T07:14:54.801Z,5.49
2024-04-22T07:15:57.707Z,5.30
2024-04-22T07:17:00.710Z,5.09
2024-04-22T07:18:03.899Z,4.78
2024-04-22T07:19:07.089Z,4.79
2024-04-22T07:20:10.390Z,4.70
2024-04-22T07:21:15.686Z,5.07
2024-04-22T07:22:18.782Z,5.32
2024-04-22T07:23:21.856Z,4.93
2024-04-22T07:24:26.633Z,4.70
2024-04-22T07:25:31.676Z,4.97
2024-04-22T07:26:34.691Z,5.12
2024-04-22T07:27:37.782Z,5.02
2024-04-22T07:28:40.830Z,4.94
2024-04-22T07:29:43.901Z,5.14
2024-04-22T07:30:47.051Z,5.39
2024-04-22T07:31:50.252Z,5.23
2024-04-22T07:32:53.456Z,5.31
2024-04-22T07:33:57.649Z,5.06
2024-04-22T07:35:00.962Z,5.32
2024-04-22T07:36:11.990Z,5.07
2024-04-22T07:37:20.837Z,5.16
2024-04-22T07:38:32.687Z,5.08
2024-04-22T07:39:36.873Z,5.31
2024-04-22T07:40:40.445Z,5.20
2024-04-22T07:41:43.336Z,5.24
2024-04-22T07:42:47.873Z,5.29
2024-04-22T07:43:51.111Z,5.61
2024-04-22T07:44:54.304Z,5.61
2024-04-22T07:45:57.236Z,5.60
2024-04-22T07:47:00.293Z,5.75
2024-04-22T07:48:03.456Z,5.75
2024-04-22T07:49:06.640Z,5.66
2024-04-22T07:50:10.140Z,6.17
2024-04-22T07:51:13.167Z,6.05
2024-04-22T07:52:16.411Z,5.99
2024-04-22T07:53:19.710Z,6.31
2024-04-22T07:54:25.411Z,6.25
2024-04-22T07:55:29.138Z,6.22
2024-04-22T07:56:32.480Z,6.32
2024-04-22T07:57:40.783Z,6.58
2024-04-22T07:58:47.531Z,6.47
2024-04-22T07:59:50.786Z,6.54
2024-04-22T08:00:54.496Z,6.32
2024-04-22T08:01:57.712Z,6.07
2024-04-22T08:03:01.027Z,6.81
2024-04-22T08:04:04.344Z,6.57
2024-04-22T08:05:08.279Z,5.89
2024-04-22T08:06:15.448Z,5.88
2024-04-22T08:07:20.542Z,6.16
2024-04-22T08:08:25.882Z,6.40
2024-04-22T08:09:29.155Z,6.63
2024-04-22T08:10:32.217Z,7.12
2024-04-22T08:11:35.832Z,7.59
2024-04-22T08:12:38.780Z,7.48
2024-04-22T08:13:41.803Z,7.20
2024-04-22T08:14:45.261Z,7.52
2024-04-22T08:15:48.922Z,7.49
2024-04-22T08:16:52.054Z,7.92
2024-04-22T08:17:55.179Z,7.32
2024-04-22T08:18:58.324Z,7.30
2024-04-22T08:20:01.245Z,7.07
2024-04-22T08:21:06.622Z,6.50
2024-04-22T08:22:09.593Z,7.05
2024-04-22T08:23:12.497Z,7.62
2024-04-22T08:24:15.423Z,7.75
2024-04-22T08:25:18.599Z,7.26
2024-04-22T08:26:21.777Z,7.39
2024-04-22T08:27:24.975Z,7.12
2024-04-22T08:28:28.234Z,6.96
2024-04-22T08:29:31.137Z,6.85
2024-04-22T08:30:34.412Z,6.94
2024-04-22T08:31:37.339Z,6.70
2024-04-22T08:32:40.483Z,6.73
2024-04-22T08:33:43.664Z,6.73
2024-04-22T08:34:47.622Z,6.90
2024-04-22T08:35:50.767Z,7.14
2024-04-22T08:36:55.372Z,7.50
2024-04-22T08:37:58.307Z,7.24
2024-04-22T08:39:01.194Z,7.03
2024-04-22T08:40:04.149Z,7.63
2024-04-22T08:41:13.478Z,7.71
2024-04-22T08:42:16.709Z,7.55
2024-04-22T08:43:19.917Z,7.68
2024-04-22T08:44:23.180Z,7.52
2024-04-22T08:45:26.551Z,7.61
2024-04-22T08:46:29.585Z,7.31
2024-04-22T08:47:33.004Z,7.10
2024-04-22T08:48:36.538Z,7.34
2024-04-22T08:49:39.502Z,7.98
2024-04-22T08:50:43.141Z,8.16
2024-04-22T08:51:48.091Z,7.94
2024-04-22T08:52:56.228Z,8.12
2024-04-22T08:54:00.307Z,7.81
2024-04-22T08:55:04.175Z,7.73
2024-04-22T08:56:09.594Z,8.37
2024-04-22T08:57:12.477Z,9.33
2024-04-22T08:58:15.749Z,9.34
2024-04-22T08:59:29.586Z,9.13
2024-04-22T09:00:37.889Z,8.78
2024-04-22T09:01:41.063Z,8.88
2024-04-22T09:02:44.134Z,9.55
2024-04-22T09:03:47.261Z,8.54
2024-04-22T09:04:50.529Z,8.57
2024-04-22T09:05:53.562Z,8.67
2024-04-22T09:06:57.123Z,8.87
2024-04-22T09:08:02.576Z,9.77
2024-04-22T09:09:11.228Z,10.03
2024-04-22T09:10:49.020Z,10.77
2024-04-22T09:11:59.032Z,10.47
2024-04-22T09:13:03.102Z,11.10
2024-04-22T09:14:06.835Z,10.87
2024-04-22T09:15:09.959Z,11.15
2024-04-22T09:16:17.574Z,10.02
2024-04-22T09:17:21.148Z,9.15
2024-04-22T09:18:29.359Z,8.92
2024-04-22T09:19:33.601Z,9.68
2024-04-22T09:20:37.550Z,10.42
2024-04-22T09:21:40.550Z,11.09
2024-04-22T09:22:43.679Z,10.33
2024-04-22T09:23:46.778Z,10.39
2024-04-22T09:24:49.776Z,10.04
2024-04-22T09:25:53.002Z,9.79
2024-04-22T09:26:58.400Z,9.53
2024-04-22T09:28:02.137Z,10.23
2024-04-22T09:29:09.293Z,10.70
2024-04-22T09:30:14.494Z,10.63
2024-04-22T09:31:21.596Z,10.02
2024-04-22T09:32:27.650Z,9.16
2024-04-22T09:33:39.996Z,9.48
2024-04-22T09:34:44.945Z,9.09
2024-04-22T09:35:48.480Z,9.12
2024-04-22T09:36:51.984Z,8.85
2024-04-22T09:37:55.999Z,8.61
2024-04-22T09:38:59.455Z,8.52
2024-04-22T09:40:05.942Z,8.68
2024-04-22T09:41:10.210Z,8.74
2024-04-22T09:42:14.517Z,8.07
2024-04-22T09:43:18.738Z,7.65
2024-04-22T09:44:23.540Z,7.56
2024-04-22T09:45:26.746Z,7.62
2024-04-22T09:46:32.576Z,8.20
2024-04-22T09:47:38.899Z,7.97
2024-04-22T09:48:45.911Z,7.64
2024-04-22T09:49:50.408Z,8.00
2024-04-22T09:50:55.488Z,8.24
2024-04-22T09:52:01.041Z,8.77
2024-04-22T09:53:06.440Z,8.88
2024-04-22T09:54:09.636Z,8.99
2024-04-22T09:55:12.817Z,8.70
2024-04-22T09:56:30.713Z,8.89
2024-04-22T09:57:37.599Z,9.70
2024-04-22T09:58:42.136Z,9.98
2024-04-22T09:59:46.177Z,9.43
2024-04-22T10:00:51.756Z,9.25
2024-04-22T10:01:55.203Z,8.26
2024-04-22T10:02:58.578Z,8.23
2024-04-22T10:04:02.203Z,8.39
2024-04-22T10:05:13.337Z,8.16
2024-04-22T10:06:18.983Z,8.58
2024-04-22T10:07:22.128Z,8.71
2024-04-22T10:08:25.227Z,8.80
2024-04-22T10:09:28.668Z,8.37
2024-04-22T10:10:32.303Z,8.70
2024-04-22T10:11:35.637Z,8.42
2024-04-22T10:12:38.892Z,8.69
2024-04-22T10:13:42.076Z,9.22
2024-04-22T10:14:45.008Z,8.96
2024-04-22T10:15:48.619Z,8.93
2024-04-22T10:16:58.855Z,9.32
2024-04-22T10:18:19.647Z,9.11
2024-04-22T10:19:22.940Z,9.19
2024-04-22T10:20:34.795Z,8.96
2024-04-22T10:21:43.922Z,9.38
2024-04-22T10:22:46.923Z,10.02
2024-04-22T10:23:49.894Z,9.79
2024-04-22T10:24:54.775Z,9.85
2024-04-22T10:25:57.914Z,10.38
2024-04-22T10:27:09.860Z,9.80
2024-04-22T10:28:15.187Z,9.83
2024-04-22T10:29:18.896Z,10.19
2024-04-22T10:30:21.793Z,10.64
2024-04-22T10:31:26.152Z,10.74
2024-04-22T10:32:29.192Z,10.53
2024-04-22T10:33:32.205Z,10.15
2024-04-22T10:34:39.753Z,10.53
2024-04-22T10:35:42.670Z,10.24
2024-04-22T10:36:47.349Z,10.65
2024-04-22T10:37:51.745Z,11.49
2024-04-22T10:38:54.767Z,12.05
2024-04-22T10:39:57.714Z,11.35
2024-04-22T10:41:00.580Z,10.95
2024-04-22T10:42:04.032Z,11.81
2024-04-22T10:43:07.279Z,11.16
2024-04-22T10:44:10.305Z,10.88
2024-04-22T10:45:14.600Z,11.11
2024-04-22T10:46:17.848Z,11.40
2024-04-22T10:47:21.669Z,10.85
2024-04-22T10:48:26.042Z,10.70
2024-04-22T10:49:32.544Z,11.18
2024-04-22T10:50:40.730Z,11.86
2024-04-22T10:51:43.691Z,11.06
2024-04-22T10:52:46.791Z,11.04
2024-04-22T10:53:51.148Z,10.68
2024-04-22T10:54:54.112Z,9.99
2024-04-22T10:55:57.047Z,10.19
2024-04-22T10:57:01.222Z,9.70
2024-04-22T10:58:04.131Z,9.97
2024-04-22T10:59:07.491Z,10.72
2024-04-22T11:00:11.994Z,11.13
2024-04-22T11:01:15.105Z,11.39
2024-04-22T11:02:18.311Z,11.45
2024-04-22T11:03:21.512Z,11.09
2024-04-22T11:04:24.547Z,11.02
2024-04-22T11:05:29.843Z,11.03
2024-04-22T11:06:33.827Z,10.90
2024-04-22T11:07:36.769Z,10.48
2024-04-22T11:08:43.462Z,10.27
2024-04-22T11:09:47.202Z,10.31
2024-04-22T11:10:50.367Z,10.38
2024-04-22T11:11:53.770Z,10.29
2024-04-22T11:12:57.305Z,10.10
2024-04-22T11:14:00.331Z,9.35
2024-04-22T11:15:03.687Z,9.15
2024-04-22T11:16:10.533Z,8.80
2024-04-22T11:17:21.658Z,9.18
2024-04-22T11:18:24.749Z,9.66
2024-04-22T11:19:29.091Z,9.81
2024-04-22T11:20:32.718Z,10.23
2024-04-22T11:21:36.031Z,11.11
2024-04-22T11:22:39.351Z,11.20
2024-04-22T11:23:42.411Z,11.01
2024-04-22T11:24:45.381Z,10.84
2024-04-22T11:25:48.757Z,10.43
2024-04-22T11:26:52.025Z,10.43
2024-04-22T11:27:55.098Z,10.17
2024-04-22T11:29:00.250Z,9.28
2024-04-22T11:30:03.400Z,9.08
2024-04-22T11:31:08.590Z,8.63
2024-04-22T11:32:11.978Z,8.23
2024-04-22T11:33:15.304Z,8.22
2024-04-22T11:34:20.583Z,8.15
2024-04-22T11:35:24.207Z,8.19
2024-04-22T11:36:31.779Z,8.14
2024-04-22T11:37:36.842Z,8.56
2024-04-22T11:38:39.773Z,8.66
2024-04-22T11:39:42.829Z,8.87
2024-04-22T11:40:47.708Z,9.08
2024-04-22T11:41:50.705Z,9.26
2024-04-22T11:42:53.599Z,9.43
2024-04-22T11:43:56.632Z,10.18
2024-04-22T11:45:01.464Z,10.06
2024-04-22T11:46:06.015Z,10.69
2024-04-22T11:47:09.080Z,11.21
2024-04-22T11:48:12.225Z,10.59
2024-04-22T11:49:15.395Z,10.05
2024-04-22T11:50:18.403Z,10.52
2024-04-22T11:51:21.351Z,11.38
2024-04-22T11:52:24.368Z,11.48
2024-04-22T11:53:27.520Z,11.03
2024-04-22T11:54:30.686Z,10.86
2024-04-22T11:55:33.634Z,10.57
2024-04-22T11:56:37.327Z,10.49
2024-04-22T11:57:42.459Z,10.13
2024-04-22T11:58:46.491Z,10.15
2024-04-22T11:59:49.759Z,9.85
2024-04-22T12:00:52.822Z,9.53
2024-04-22T12:01:55.811Z,9.31
2024-04-22T12:02:58.871Z,9.43
2024-04-22T12:04:02.350Z,8.98
2024-04-22T12:05:15.531Z,9.31
2024-04-22T12:06:18.680Z,8.91
2024-04-22T12:07:21.755Z,8.48
2024-04-22T12:08:24.747Z,8.33
2024-04-22T12:09:27.820Z,8.46
2024-04-22T12:10:30.810Z,8.68
2024-04-22T12:11:33.744Z,8.87
2024-04-22T12:12:36.751Z,9.20
2024-04-22T12:13:39.739Z,8.77
2024-04-22T12:14:42.662Z,9.21
2024-04-22T12:15:45.588Z,9.59
2024-04-22T12:16:50.193Z,10.18
2024-04-22T12:17:53.389Z,10.80
2024-04-22T12:18:56.286Z,10.55
2024-04-22T12:19:59.275Z,10.77
2024-04-22T12:21:05.021Z,11.52
2024-04-22T12:22:08.994Z,12.14
2024-04-22T12:23:11.964Z,11.69
2024-04-22T12:24:14.924Z,10.92
2024-04-22T12:25:18.212Z,10.43
2024-04-22T12:26:21.147Z,9.56
2024-04-22T12:27:24.526Z,9.28
2024-04-22T12:28:27.463Z,9.10
2024-04-22T12:29:30.433Z,9.19
2024-04-22T12:30:33.317Z,9.43
2024-04-22T12:31:36.685Z,9.40
2024-04-22T12:32:39.870Z,9.43
2024-04-22T12:33:51.345Z,9.41
2024-04-22T12:35:03.749Z,9.26
2024-04-22T12:36:07.538Z,8.82
2024-04-22T12:37:10.528Z,8.62
2024-04-22T12:38:13.407Z,8.61
2024-04-22T12:39:16.371Z,8.67
2024-04-22T12:40:19.448Z,8.94
2024-04-22T12:41:23.251Z,8.75
2024-04-22T12:42:26.313Z,8.76
2024-04-22T12:43:29.260Z,8.77
2024-04-22T12:44:32.189Z,8.62
2024-04-22T12:45:35.238Z,8.58
2024-04-22T12:46:57.083Z,8.57
2024-04-22T12:48:19.145Z,9.24
2024-04-22T12:49:41.036Z,9.98
2024-04-22T12:50:44.089Z,10.74
2024-04-22T12:51:47.074Z,11.08
2024-04-22T12:52:50.296Z,11.37
2024-04-22T12:53:54.682Z,11.55
2024-04-22T12:54:57.662Z,11.80
2024-04-22T12:56:01.585Z,12.11
2024-04-22T12:57:04.958Z,12.17
2024-04-22T12:58:08.197Z,12.26
2024-04-22T12:59:11.268Z,11.92
2024-04-22T13:00:14.794Z,12.23
2024-04-22T13:01:17.953Z,11.73
2024-04-22T13:02:24.044Z,11.52
2024-04-22T13:03:28.454Z,11.60
2024-04-22T13:04:31.762Z,12.02
2024-04-22T13:05:36.078Z,11.82
2024-04-22T13:06:39.011Z,11.87
2024-04-22T13:07:42.187Z,11.63
2024-04-22T13:08:45.086Z,11.20
2024-04-22T13:09:47.988Z,11.59
2024-04-22T13:10:50.969Z,12.27
2024-04-22T13:11:53.941Z,12.05
2024-04-22T13:13:01.079Z,12.35
2024-04-22T13:14:05.237Z,11.51
2024-04-22T13:15:08.298Z,11.75
2024-04-22T13:16:11.317Z,11.95
2024-04-22T13:17:14.246Z,12.52
2024-04-22T13:18:17.383Z,12.41
2024-04-22T13:19:20.295Z,12.34
2024-04-22T13:20:23.879Z,12.32
2024-04-22T13:21:29.241Z,12.54
2024-04-22T13:22:33.412Z,12.87
2024-04-22T13:23:36.487Z,12.90
2024-04-22T13:24:41.372Z,13.08
2024-04-22T13:25:44.664Z,12.68
2024-04-22T13:26:47.631Z,11.73
2024-04-22T13:27:50.572Z,12.29
2024-04-22T13:28:54.298Z,11.17
2024-04-22T13:30:03.403Z,11.37
2024-04-22T13:31:07.817Z,11.11
2024-04-22T13:32:11.239Z,11.75
2024-04-22T13:33:14.229Z,11.61
2024-04-22T13:34:20.307Z,11.93
2024-04-22T13:35:23.698Z,11.55
2024-04-22T13:36:29.120Z,11.58
2024-04-22T13:37:32.455Z,11.05
2024-04-22T13:38:35.428Z,10.87
2024-04-22T13:39:41.026Z,9.75
2024-04-22T13:40:44.444Z,9.79
2024-04-22T13:41:47.505Z,9.52
2024-04-22T13:42:50.367Z,9.95
2024-04-22T13:43:53.795Z,10.86
2024-04-22T13:44:56.968Z,11.06
2024-04-22T13:46:00.298Z,11.12
2024-04-22T13:47:05.340Z,11.20
2024-04-22T13:48:09.670Z,11.38
2024-04-22T13:49:14.990Z,11.47
2024-04-22T13:50:18.124Z,11.60
2024-04-22T13:51:21.057Z,11.72
2024-04-22T13:52:24.272Z,11.97
2024-04-22T13:53:31.850Z,12.17
2024-04-22T13:54:35.394Z,12.05
2024-04-22T13:55:38.537Z,12.02
2024-04-22T13:56:41.464Z,12.02
2024-04-22T13:57:44.610Z,12.01
2024-04-22T13:58:47.973Z,12.08
2024-04-22T13:59:52.148Z,12.23
2024-04-22T14:00:55.735Z,12.54
2024-04-22T14:01:59.019Z,12.34
2024-04-22T14:03:02.483Z,12.34
2024-04-22T14:04:05.606Z,12.56
2024-04-22T14:05:08.538Z,12.32